sensor_id;sensor_type;location;lat;lon;timestamp;P1;durP1;ratioP1;P2;durP2;ratioP2
64669;SDS011;51080;51.690;5.174;2022-11-03T00:05:04;13.00;;;3.30;;
64669;SDS011;51080;51.690;5.174;2022-11-03T00:10:52;13.40;;;3.30;;
64669;SDS011;51080;51.690;5.174;2022-11-03T00:16:44;12.90;;;3.40;;
64669;SDS011;51080;51.690;5.174;2022-11-03T00:22:35;17.80;;;3.50;;
64669;SDS011;51080;51.690;5.174;2022-11-03T00:28:25;14.80;;;3.30;;
64669;SDS011;51080;51.690;5.174;2022-11-03T00:34:14;18.00;;;3.40;;
64669;SDS011;51080;51.690;5.174;2022-11-03T00:40:02;10.30;;;2.80;;
64669;SDS011;51080;51.690;5.174;2022-11-03T00:45:51;12.20;;;2.90;;
64669;SDS011;51080;51.690;5.174;2022-11-03T00:51:39;14.70;;;3.30;;
64669;SDS011;51080;51.690;5.174;2022-11-03T00:57:27;12.00;;;2.90;;
64669;SDS011;51080;51.690;5.174;2022-11-03T01:03:16;12.90;;;3.10;;
64669;SDS011;51080;51.690;5.174;2022-11-03T01:09:03;13.40;;;2.90;;
64669;SDS011;51080;51.690;5.174;2022-11-03T01:14:51;12.50;;;3.20;;
64669;SDS011;51080;51.690;5.174;2022-11-03T01:20:40;15.00;;;3.00;;
64669;SDS011;51080;51.690;5.174;2022-11-03T01:26:28;11.40;;;3.00;;
64669;SDS011;51080;51.690;5.174;2022-11-03T01:32:15;13.60;;;3.30;;
64669;SDS011;51080;51.690;5.174;2022-11-03T01:38:04;15.50;;;3.30;;
64669;SDS011;51080;51.690;5.174;2022-11-03T01:50:09;14.20;;;3.00;;
64669;SDS011;51080;51.690;5.174;2022-11-03T01:56:04;12.70;;;3.20;;
64669;SDS011;51080;51.690;5.174;2022-11-03T02:01:53;13.20;;;3.30;;
64669;SDS011;51080;51.690;5.174;2022-11-03T02:14:01;11.80;;;3.10;;
64669;SDS011;51080;51.690;5.174;2022-11-03T02:19:50;10.60;;;3.00;;
64669;SDS011;51080;51.690;5.174;2022-11-03T02:25:53;15.20;;;3.30;;
64669;SDS011;51080;51.690;5.174;2022-11-03T02:31:48;15.80;;;2.80;;
64669;SDS011;51080;51.690;5.174;2022-11-03T02:37:43;13.40;;;2.90;;
64669;SDS011;51080;51.690;5.174;2022-11-03T02:43:36;16.20;;;3.50;;
64669;SDS011;51080;51.690;5.174;2022-11-03T02:49:27;10.40;;;2.50;;
64669;SDS011;51080;51.690;5.174;2022-11-03T03:01:36;11.50;;;2.40;;
64669;SDS011;51080;51.690;5.174;2022-11-03T03:07:31;12.10;;;2.70;;
64669;SDS011;51080;51.690;5.174;2022-11-03T03:13:23;11.10;;;2.60;;
64669;SDS011;51080;51.690;5.174;2022-11-03T03:19:20;10.20;;;2.30;;
64669;SDS011;51080;51.690;5.174;2022-11-03T03:31:29;12.30;;;3.20;;
64669;SDS011;51080;51.690;5.174;2022-11-03T03:37:24;13.40;;;2.70;;
64669;SDS011;51080;51.690;5.174;2022-11-03T03:43:16;11.70;;;2.60;;
64669;SDS011;51080;51.690;5.174;2022-11-03T03:49:08;9.60;;;2.50;;
64669;SDS011;51080;51.690;5.174;2022-11-03T03:54:57;12.90;;;2.90;;
64669;SDS011;51080;51.690;5.174;2022-11-03T04:00:47;16.70;;;3.20;;
64669;SDS011;51080;51.690;5.174;2022-11-03T04:06:36;12.80;;;3.00;;
64669;SDS011;51080;51.690;5.174;2022-11-03T04:12:27;14.20;;;2.90;;
64669;SDS011;51080;51.690;5.174;2022-11-03T04:18:18;10.70;;;2.70;;
64669;SDS011;51080;51.690;5.174;2022-11-03T04:24:10;12.50;;;2.80;;
64669;SDS011;51080;51.690;5.174;2022-11-03T04:30:05;10.10;;;3.10;;
64669;SDS011;51080;51.690;5.174;2022-11-03T04:42:15;11.40;;;3.20;;
64669;SDS011;51080;51.690;5.174;2022-11-03T04:48:15;11.70;;;2.90;;
64669;SDS011;51080;51.690;5.174;2022-11-03T04:54:21;11.20;;;2.70;;
64669;SDS011;51080;51.690;5.174;2022-11-03T05:00:16;14.10;;;3.10;;
64669;SDS011;51080;51.690;5.174;2022-11-03T05:06:13;11.90;;;3.20;;
64669;SDS011;51080;51.690;5.174;2022-11-03T05:12:03;13.90;;;3.30;;
64669;SDS011;51080;51.690;5.174;2022-11-03T05:17:52;8.20;;;2.70;;
64669;SDS011;51080;51.690;5.174;2022-11-03T05:23:42;10.00;;;3.00;;
64669;SDS011;51080;51.690;5.174;2022-11-03T05:29:34;10.30;;;3.20;;
64669;SDS011;51080;51.690;5.174;2022-11-03T05:35:23;11.20;;;2.90;;
64669;SDS011;51080;51.690;5.174;2022-11-03T05:41:22;11.90;;;3.20;;
64669;SDS011;51080;51.690;5.174;2022-11-03T05:47:20;11.10;;;2.90;;
64669;SDS011;51080;51.690;5.174;2022-11-03T05:59:22;11.20;;;3.30;;
64669;SDS011;51080;51.690;5.174;2022-11-03T06:05:14;10.90;;;3.20;;
64669;SDS011;51080;51.690;5.174;2022-11-03T06:11:02;13.70;;;3.30;;
64669;SDS011;51080;51.690;5.174;2022-11-03T06:17:21;12.60;;;3.20;;
64669;SDS011;51080;51.690;5.174;2022-11-03T06:23:10;11.90;;;2.80;;
64669;SDS011;51080;51.690;5.174;2022-11-03T06:28:56;10.30;;;2.90;;
64669;SDS011;51080;51.690;5.174;2022-11-03T06:34:47;15.30;;;3.20;;
64669;SDS011;51080;51.690;5.174;2022-11-03T06:40:35;14.00;;;3.30;;
64669;SDS011;51080;51.690;5.174;2022-11-03T06:46:21;12.20;;;3.00;;
64669;SDS011;51080;51.690;5.174;2022-11-03T06:52:20;13.00;;;3.60;;
64669;SDS011;51080;51.690;5.174;2022-11-03T06:58:30;12.10;;;3.10;;
64669;SDS011;51080;51.690;5.174;2022-11-03T07:04:21;12.60;;;2.90;;
64669;SDS011;51080;51.690;5.174;2022-11-03T07:10:08;10.70;;;2.80;;
64669;SDS011;51080;51.690;5.174;2022-11-03T07:15:52;13.00;;;3.20;;
64669;SDS011;51080;51.690;5.174;2022-11-03T07:21:37;10.50;;;3.30;;
64669;SDS011;51080;51.690;5.174;2022-11-03T07:27:30;15.70;;;3.80;;
64669;SDS011;51080;51.690;5.174;2022-11-03T07:33:23;9.60;;;2.70;;
64669;SDS011;51080;51.690;5.174;2022-11-03T07:39:12;11.10;;;3.10;;
64669;SDS011;51080;51.690;5.174;2022-11-03T07:45:43;15.60;;;3.00;;
64669;SDS011;51080;51.690;5.174;2022-11-03T07:51:35;19.20;;;3.60;;
64669;SDS011;51080;51.690;5.174;2022-11-03T07:57:28;12.10;;;2.90;;
64669;SDS011;51080;51.690;5.174;2022-11-03T08:03:21;13.00;;;3.10;;
64669;SDS011;51080;51.690;5.174;2022-11-03T08:09:08;17.90;;;3.70;;
64669;SDS011;51080;51.690;5.174;2022-11-03T08:14:51;10.60;;;3.00;;
64669;SDS011;51080;51.690;5.174;2022-11-03T08:20:36;10.80;;;3.00;;
64669;SDS011;51080;51.690;5.174;2022-11-03T08:26:20;13.10;;;3.50;;
64669;SDS011;51080;51.690;5.174;2022-11-03T08:32:05;12.60;;;3.30;;
64669;SDS011;51080;51.690;5.174;2022-11-03T08:37:50;13.50;;;3.00;;
64669;SDS011;51080;51.690;5.174;2022-11-03T08:43:35;10.70;;;2.50;;
64669;SDS011;51080;51.690;5.174;2022-11-03T08:49:22;10.70;;;2.70;;
64669;SDS011;51080;51.690;5.174;2022-11-03T08:55:07;10.00;;;2.80;;
64669;SDS011;51080;51.690;5.174;2022-11-03T09:00:53;13.80;;;3.30;;
64669;SDS011;51080;51.690;5.174;2022-11-03T09:06:37;9.10;;;2.70;;
64669;SDS011;51080;51.690;5.174;2022-11-03T09:12:21;14.30;;;2.80;;
64669;SDS011;51080;51.690;5.174;2022-11-03T09:18:05;7.00;;;2.10;;
64669;SDS011;51080;51.690;5.174;2022-11-03T09:23:50;8.60;;;2.30;;
64669;SDS011;51080;51.690;5.174;2022-11-03T09:29:34;9.60;;;2.70;;
64669;SDS011;51080;51.690;5.174;2022-11-03T09:35:19;8.10;;;2.80;;
64669;SDS011;51080;51.690;5.174;2022-11-03T09:41:04;8.90;;;2.30;;
64669;SDS011;51080;51.690;5.174;2022-11-03T09:46:49;9.80;;;2.20;;
64669;SDS011;51080;51.690;5.174;2022-11-03T09:52:33;9.70;;;2.50;;
64669;SDS011;51080;51.690;5.174;2022-11-03T09:58:20;9.50;;;2.30;;
64669;SDS011;51080;51.690;5.174;2022-11-03T10:04:04;9.60;;;2.50;;
64669;SDS011;51080;51.690;5.174;2022-11-03T10:09:50;9.90;;;2.20;;
64669;SDS011;51080;51.690;5.174;2022-11-03T10:15:35;7.10;;;2.20;;
64669;SDS011;51080;51.690;5.174;2022-11-03T10:21:25;8.80;;;2.50;;
64669;SDS011;51080;51.690;5.174;2022-11-03T10:27:22;8.00;;;2.20;;
64669;SDS011;51080;51.690;5.174;2022-11-03T10:33:03;6.70;;;2.20;;
64669;SDS011;51080;51.690;5.174;2022-11-03T10:45:15;10.60;;;2.30;;
64669;SDS011;51080;51.690;5.174;2022-11-03T10:51:01;7.70;;;2.20;;
64669;SDS011;51080;51.690;5.174;2022-11-03T10:56:45;8.50;;;2.20;;
64669;SDS011;51080;51.690;5.174;2022-11-03T11:02:30;8.00;;;2.10;;
64669;SDS011;51080;51.690;5.174;2022-11-03T11:08:18;7.70;;;2.20;;
64669;SDS011;51080;51.690;5.174;2022-11-03T11:14:33;7.70;;;2.20;;
64669;SDS011;51080;51.690;5.174;2022-11-03T11:20:46;6.80;;;1.90;;
64669;SDS011;51080;51.690;5.174;2022-11-03T11:26:31;8.60;;;1.80;;
64669;SDS011;51080;51.690;5.174;2022-11-03T11:45:07;8.20;;;1.90;;
64669;SDS011;51080;51.690;5.174;2022-11-03T11:50:51;6.30;;;1.90;;
64669;SDS011;51080;51.690;5.174;2022-11-03T11:56:45;8.20;;;1.90;;
64669;SDS011;51080;51.690;5.174;2022-11-03T12:02:31;6.30;;;2.10;;
64669;SDS011;51080;51.690;5.174;2022-11-03T12:08:45;6.90;;;1.80;;
64669;SDS011;51080;51.690;5.174;2022-11-03T12:20:52;5.50;;;1.60;;
64669;SDS011;51080;51.690;5.174;2022-11-03T12:26:39;5.10;;;1.70;;
64669;SDS011;51080;51.690;5.174;2022-11-03T12:32:23;8.20;;;1.80;;
64669;SDS011;51080;51.690;5.174;2022-11-03T12:38:08;7.60;;;2.20;;
64669;SDS011;51080;51.690;5.174;2022-11-03T12:44:23;6.70;;;1.90;;
64669;SDS011;51080;51.690;5.174;2022-11-03T12:50:08;6.50;;;2.00;;
64669;SDS011;51080;51.690;5.174;2022-11-03T12:55:53;5.90;;;1.90;;
64669;SDS011;51080;51.690;5.174;2022-11-03T13:01:37;4.90;;;1.80;;
64669;SDS011;51080;51.690;5.174;2022-11-03T13:07:22;8.60;;;1.80;;
64669;SDS011;51080;51.690;5.174;2022-11-03T13:13:05;5.20;;;1.60;;
64669;SDS011;51080;51.690;5.174;2022-11-03T13:18:50;6.70;;;1.70;;
64669;SDS011;51080;51.690;5.174;2022-11-03T13:24:36;7.10;;;1.90;;
64669;SDS011;51080;51.690;5.174;2022-11-03T13:30:50;5.30;;;1.50;;
64669;SDS011;51080;51.690;5.174;2022-11-03T13:36:35;5.50;;;1.90;;
64669;SDS011;51080;51.690;5.174;2022-11-03T13:42:19;5.30;;;1.60;;
64669;SDS011;51080;51.690;5.174;2022-11-03T13:48:04;7.50;;;2.00;;
64669;SDS011;51080;51.690;5.174;2022-11-03T13:53:48;4.50;;;1.70;;
64669;SDS011;51080;51.690;5.174;2022-11-03T13:59:32;6.00;;;1.60;;
64669;SDS011;51080;51.690;5.174;2022-11-03T14:05:16;6.00;;;2.00;;
64669;SDS011;51080;51.690;5.174;2022-11-03T14:11:00;5.40;;;1.70;;
64669;SDS011;51080;51.690;5.174;2022-11-03T14:16:45;6.20;;;2.00;;
64669;SDS011;51080;51.690;5.174;2022-11-03T14:22:29;6.20;;;1.90;;
64669;SDS011;51080;51.690;5.174;2022-11-03T14:28:14;6.00;;;1.90;;
64669;SDS011;51080;51.690;5.174;2022-11-03T14:33:59;7.10;;;2.10;;
64669;SDS011;51080;51.690;5.174;2022-11-03T14:39:45;6.40;;;2.00;;
64669;SDS011;51080;51.690;5.174;2022-11-03T14:45:30;6.40;;;1.90;;
64669;SDS011;51080;51.690;5.174;2022-11-03T14:51:14;5.80;;;1.70;;
64669;SDS011;51080;51.690;5.174;2022-11-03T14:56:58;7.50;;;2.20;;
64669;SDS011;51080;51.690;5.174;2022-11-03T15:02:43;5.80;;;2.10;;
64669;SDS011;51080;51.690;5.174;2022-11-03T15:08:27;6.50;;;2.00;;
64669;SDS011;51080;51.690;5.174;2022-11-03T15:14:11;8.20;;;2.60;;
64669;SDS011;51080;51.690;5.174;2022-11-03T15:19:56;6.50;;;2.30;;
64669;SDS011;51080;51.690;5.174;2022-11-03T15:25:41;9.00;;;2.40;;
64669;SDS011;51080;51.690;5.174;2022-11-03T15:31:25;7.20;;;2.20;;
64669;SDS011;51080;51.690;5.174;2022-11-03T15:37:09;6.80;;;2.50;;
64669;SDS011;51080;51.690;5.174;2022-11-03T15:42:54;6.10;;;2.30;;
64669;SDS011;51080;51.690;5.174;2022-11-03T15:48:38;7.80;;;2.60;;
64669;SDS011;51080;51.690;5.174;2022-11-03T15:54:23;6.70;;;2.40;;
64669;SDS011;51080;51.690;5.174;2022-11-03T16:00:09;7.50;;;2.20;;
64669;SDS011;51080;51.690;5.174;2022-11-03T16:05:55;7.80;;;3.30;;
64669;SDS011;51080;51.690;5.174;2022-11-03T16:11:40;6.00;;;2.60;;
64669;SDS011;51080;51.690;5.174;2022-11-03T16:17:25;5.50;;;2.40;;
64669;SDS011;51080;51.690;5.174;2022-11-03T16:23:10;6.80;;;2.90;;
64669;SDS011;51080;51.690;5.174;2022-11-03T16:28:53;6.60;;;2.60;;
64669;SDS011;51080;51.690;5.174;2022-11-03T16:34:38;10.70;;;3.00;;
64669;SDS011;51080;51.690;5.174;2022-11-03T16:40:22;11.50;;;3.30;;
64669;SDS011;51080;51.690;5.174;2022-11-03T16:46:09;11.50;;;3.70;;
64669;SDS011;51080;51.690;5.174;2022-11-03T16:51:56;10.00;;;3.90;;
64669;SDS011;51080;51.690;5.174;2022-11-03T16:57:41;10.30;;;4.10;;
64669;SDS011;51080;51.690;5.174;2022-11-03T17:03:25;16.70;;;4.90;;
64669;SDS011;51080;51.690;5.174;2022-11-03T17:09:09;15.20;;;5.30;;
64669;SDS011;51080;51.690;5.174;2022-11-03T17:14:56;13.10;;;5.10;;
64669;SDS011;51080;51.690;5.174;2022-11-03T17:20:49;11.30;;;5.10;;
64669;SDS011;51080;51.690;5.174;2022-11-03T17:26:47;10.50;;;5.40;;
64669;SDS011;51080;51.690;5.174;2022-11-03T17:32:48;11.90;;;5.40;;
64669;SDS011;51080;51.690;5.174;2022-11-03T17:38:41;16.50;;;6.30;;
64669;SDS011;51080;51.690;5.174;2022-11-03T17:44:30;12.40;;;6.50;;
64669;SDS011;51080;51.690;5.174;2022-11-03T17:50:19;15.60;;;6.30;;
64669;SDS011;51080;51.690;5.174;2022-11-03T17:56:11;12.40;;;6.60;;
64669;SDS011;51080;51.690;5.174;2022-11-03T18:02:07;13.50;;;6.80;;
64669;SDS011;51080;51.690;5.174;2022-11-03T18:08:03;15.20;;;6.80;;
64669;SDS011;51080;51.690;5.174;2022-11-03T18:14:08;12.10;;;7.40;;
64669;SDS011;51080;51.690;5.174;2022-11-03T18:19:58;14.20;;;7.20;;
64669;SDS011;51080;51.690;5.174;2022-11-03T18:25:48;12.10;;;7.40;;
64669;SDS011;51080;51.690;5.174;2022-11-03T18:31:38;12.20;;;7.40;;
64669;SDS011;51080;51.690;5.174;2022-11-03T18:37:32;12.80;;;7.10;;
64669;SDS011;51080;51.690;5.174;2022-11-03T18:43:22;12.90;;;7.50;;
64669;SDS011;51080;51.690;5.174;2022-11-03T18:49:12;12.80;;;7.50;;
64669;SDS011;51080;51.690;5.174;2022-11-03T18:55:09;16.70;;;8.10;;
64669;SDS011;51080;51.690;5.174;2022-11-03T19:01:00;13.60;;;8.60;;
64669;SDS011;51080;51.690;5.174;2022-11-03T19:06:49;14.20;;;7.90;;
64669;SDS011;51080;51.690;5.174;2022-11-03T19:12:41;12.90;;;7.60;;
64669;SDS011;51080;51.690;5.174;2022-11-03T19:18:33;14.70;;;7.80;;
64669;SDS011;51080;51.690;5.174;2022-11-03T19:24:26;18.60;;;13.70;;
64669;SDS011;51080;51.690;5.174;2022-11-03T19:30:16;12.30;;;7.50;;
64669;SDS011;51080;51.690;5.174;2022-11-03T19:36:07;12.50;;;7.40;;
64669;SDS011;51080;51.690;5.174;2022-11-03T19:41:59;12.50;;;8.10;;
64669;SDS011;51080;51.690;5.174;2022-11-03T19:47:55;13.00;;;8.30;;
64669;SDS011;51080;51.690;5.174;2022-11-03T19:53:48;13.70;;;8.40;;
64669;SDS011;51080;51.690;5.174;2022-11-03T19:59:36;13.90;;;8.50;;
64669;SDS011;51080;51.690;5.174;2022-11-03T20:05:26;17.30;;;11.90;;
64669;SDS011;51080;51.690;5.174;2022-11-03T20:11:13;16.10;;;10.80;;
64669;SDS011;51080;51.690;5.174;2022-11-03T20:17:13;16.10;;;11.10;;
64669;SDS011;51080;51.690;5.174;2022-11-03T20:23:05;17.40;;;11.40;;
64669;SDS011;51080;51.690;5.174;2022-11-03T20:28:58;17.10;;;11.50;;
64669;SDS011;51080;51.690;5.174;2022-11-03T20:34:48;15.60;;;11.30;;
64669;SDS011;51080;51.690;5.174;2022-11-03T20:40:39;24.70;;;12.80;;
64669;SDS011;51080;51.690;5.174;2022-11-03T20:46:31;17.20;;;12.90;;
64669;SDS011;51080;51.690;5.174;2022-11-03T20:52:22;14.90;;;10.40;;
64669;SDS011;51080;51.690;5.174;2022-11-03T20:58:32;17.10;;;11.60;;
64669;SDS011;51080;51.690;5.174;2022-11-03T21:04:22;11.90;;;9.20;;
64669;SDS011;51080;51.690;5.174;2022-11-03T21:10:22;14.10;;;9.40;;
64669;SDS011;51080;51.690;5.174;2022-11-03T21:16:11;12.30;;;7.30;;
64669;SDS011;51080;51.690;5.174;2022-11-03T21:22:00;10.40;;;5.40;;
64669;SDS011;51080;51.690;5.174;2022-11-03T21:27:49;6.30;;;4.10;;
64669;SDS011;51080;51.690;5.174;2022-11-03T21:33:37;7.00;;;4.30;;
64669;SDS011;51080;51.690;5.174;2022-11-03T21:39:27;7.20;;;4.10;;
64669;SDS011;51080;51.690;5.174;2022-11-03T21:45:20;5.40;;;1.50;;
64669;SDS011;51080;51.690;5.174;2022-11-03T21:51:11;2.00;;;1.20;;
64669;SDS011;51080;51.690;5.174;2022-11-03T21:57:00;5.70;;;2.50;;
64669;SDS011;51080;51.690;5.174;2022-11-03T22:02:49;7.60;;;4.40;;
64669;SDS011;51080;51.690;5.174;2022-11-03T22:08:37;10.70;;;6.60;;
64669;SDS011;51080;51.690;5.174;2022-11-03T22:14:25;13.50;;;7.30;;
64669;SDS011;51080;51.690;5.174;2022-11-03T22:20:16;11.80;;;6.10;;
64669;SDS011;51080;51.690;5.174;2022-11-03T22:26:04;11.10;;;6.30;;
64669;SDS011;51080;51.690;5.174;2022-11-03T22:31:54;10.50;;;6.00;;
64669;SDS011;51080;51.690;5.174;2022-11-03T22:37:42;10.10;;;5.20;;
64669;SDS011;51080;51.690;5.174;2022-11-03T22:43:32;9.40;;;4.90;;
64669;SDS011;51080;51.690;5.174;2022-11-03T22:49:22;9.80;;;6.00;;
64669;SDS011;51080;51.690;5.174;2022-11-03T22:55:15;11.50;;;5.30;;
64669;SDS011;51080;51.690;5.174;2022-11-03T23:01:05;11.30;;;5.40;;
64669;SDS011;51080;51.690;5.174;2022-11-03T23:06:55;13.70;;;8.10;;
64669;SDS011;51080;51.690;5.174;2022-11-03T23:12:42;14.30;;;8.10;;
64669;SDS011;51080;51.690;5.174;2022-11-03T23:18:31;18.70;;;10.30;;
64669;SDS011;51080;51.690;5.174;2022-11-03T23:24:19;21.40;;;12.60;;
64669;SDS011;51080;51.690;5.174;2022-11-03T23:30:07;24.80;;;14.50;;
64669;SDS011;51080;51.690;5.174;2022-11-03T23:35:55;26.90;;;15.60;;
64669;SDS011;51080;51.690;5.174;2022-11-03T23:41:45;12.20;;;7.10;;
64669;SDS011;51080;51.690;5.174;2022-11-03T23:47:34;7.30;;;4.50;;
64669;SDS011;51080;51.690;5.174;2022-11-03T23:53:27;3.50;;;2.10;;
64669;SDS011;51080;51.690;5.174;2022-11-03T23:59:16;5.00;;;2.50;;
